createdAt,value
2023-03-18T00:00:11.379Z,7.77
2023-03-18T00:02:40.173Z,8.17
2023-03-18T00:05:10.545Z,10.10
2023-03-18T00:07:38.152Z,9.03
2023-03-18T00:10:07.556Z,7.10
2023-03-18T00:12:35.283Z,7.20
2023-03-18T00:15:02.789Z,6.60
2023-03-18T00:17:30.254Z,8.47
2023-03-18T00:19:57.738Z,10.70
2023-03-18T00:22:26.592Z,6.93
2023-03-18T00:24:54.776Z,9.57
2023-03-18T00:27:22.523Z,8.80
2023-03-18T00:29:50.545Z,9.97
2023-03-18T00:32:18.126Z,10.20
2023-03-18T00:34:46.450Z,9.93
2023-03-18T00:37:18.879Z,10.00
2023-03-18T00:39:47.793Z,9.80
2023-03-18T00:42:15.739Z,17.00
2023-03-18T00:44:44.068Z,12.67
2023-03-18T00:47:11.616Z,11.33
2023-03-18T00:49:39.312Z,8.43
2023-03-18T00:52:07.435Z,8.77
2023-03-18T00:54:35.776Z,7.30
2023-03-18T00:57:05.415Z,8.93
2023-03-18T00:59:33.171Z,9.40
2023-03-18T01:02:00.697Z,8.13
2023-03-18T01:04:28.977Z,7.90
2023-03-18T01:06:57.108Z,8.50
2023-03-18T01:09:24.876Z,7.70
2023-03-18T01:11:52.919Z,7.73
2023-03-18T01:14:21.863Z,8.03
2023-03-18T01:16:49.589Z,8.17
2023-03-18T01:19:17.143Z,11.03
2023-03-18T01:21:44.933Z,9.90
2023-03-18T01:24:13.114Z,9.90
2023-03-18T01:26:40.629Z,8.50
2023-03-18T01:29:08.128Z,10.37
2023-03-18T01:31:37.700Z,10.77
2023-03-18T01:34:05.656Z,11.20
2023-03-18T01:36:33.301Z,8.13
2023-03-18T01:39:00.863Z,6.93
2023-03-18T01:41:28.711Z,7.13
2023-03-18T01:43:56.389Z,7.57
2023-03-18T01:46:40.612Z,7.93
2023-03-18T01:49:12.711Z,9.97
2023-03-18T01:51:42.968Z,9.40
2023-03-18T01:54:12.828Z,9.13
2023-03-18T01:56:43.959Z,10.23
2023-03-18T01:59:12.260Z,14.87
2023-03-18T02:01:46.613Z,13.67
2023-03-18T02:06:41.143Z,11.83
2023-03-18T02:09:09.345Z,8.40
2023-03-18T02:11:39.668Z,10.20
2023-03-18T02:14:09.603Z,8.67
2023-03-18T02:16:47.346Z,8.47
2023-03-18T02:19:27.380Z,9.33
2023-03-18T02:22:02.082Z,8.93
2023-03-18T02:24:39.170Z,9.40
2023-03-18T02:27:16.975Z,12.20
2023-03-18T02:29:45.362Z,8.57
2023-03-18T02:32:14.824Z,8.43
2023-03-18T02:34:43.912Z,7.90
2023-03-18T02:37:11.449Z,10.03
2023-03-18T02:39:39.081Z,8.33
2023-03-18T02:42:07.051Z,8.27
2023-03-18T02:44:41.211Z,7.57
2023-03-18T02:47:12.262Z,7.93
2023-03-18T02:49:39.742Z,8.53
2023-03-18T02:52:07.580Z,12.63
2023-03-18T02:54:35.042Z,15.67
2023-03-18T02:57:02.873Z,14.67
2023-03-18T02:59:32.325Z,15.87
2023-03-18T03:02:02.051Z,13.53
2023-03-18T03:04:30.511Z,12.90
2023-03-18T03:07:01.404Z,14.80
2023-03-18T03:09:28.923Z,10.03
2023-03-18T03:11:56.392Z,10.33
2023-03-18T03:14:23.921Z,10.23
2023-03-18T03:16:51.833Z,10.87
2023-03-18T03:19:20.680Z,13.77
2023-03-18T03:21:48.395Z,9.77
2023-03-18T03:24:16.323Z,10.00
2023-03-18T03:26:43.801Z,9.60
2023-03-18T03:29:12.561Z,10.70
2023-03-18T03:31:40.483Z,10.10
2023-03-18T03:34:08.295Z,9.50
2023-03-18T03:36:37.210Z,9.97
2023-03-18T03:39:06.095Z,11.17
2023-03-18T03:41:33.916Z,9.53
2023-03-18T03:44:01.394Z,8.13
2023-03-18T03:46:28.892Z,9.57
2023-03-18T03:48:56.355Z,9.37
2023-03-18T03:51:23.925Z,9.03
2023-03-18T03:53:52.749Z,8.97
2023-03-18T03:56:20.327Z,8.23
2023-03-18T03:58:47.868Z,8.60
2023-03-18T04:01:15.419Z,8.07
2023-03-18T04:03:42.894Z,9.27
2023-03-18T04:06:11.103Z,9.03
2023-03-18T04:08:38.601Z,9.30
2023-03-18T04:11:07.515Z,9.63
2023-03-18T04:13:34.987Z,8.47
2023-03-18T04:16:02.497Z,9.33
2023-03-18T04:18:29.949Z,9.50
2023-03-18T04:20:57.509Z,9.00
2023-03-18T04:23:25.627Z,9.70
2023-03-18T04:25:53.365Z,10.93
2023-03-18T04:28:22.184Z,11.93
2023-03-18T04:30:50.513Z,11.77
2023-03-18T04:33:18.033Z,11.23
2023-03-18T04:35:45.555Z,10.87
2023-03-18T04:38:13.121Z,13.13
2023-03-18T04:40:40.865Z,9.73
2023-03-18T04:43:09.921Z,9.80
2023-03-18T04:45:38.825Z,9.23
2023-03-18T04:48:06.828Z,8.63
2023-03-18T04:50:34.361Z,9.40
2023-03-18T04:53:01.870Z,8.43
2023-03-18T04:55:29.442Z,9.03
2023-03-18T04:57:56.954Z,8.90
2023-03-18T05:00:24.834Z,12.53
2023-03-18T05:02:53.651Z,10.83
2023-03-18T05:05:21.212Z,9.97
2023-03-18T05:07:48.700Z,9.20
2023-03-18T05:10:16.507Z,10.13
2023-03-18T05:12:44.162Z,8.27
2023-03-18T05:15:13.071Z,9.57
2023-03-18T05:17:41.262Z,8.30
2023-03-18T05:20:13.315Z,8.60
2023-03-18T05:22:41.095Z,9.33
2023-03-18T05:25:11.053Z,12.47
2023-03-18T05:27:38.585Z,10.13
2023-03-18T05:30:07.165Z,9.97
2023-03-18T05:32:34.725Z,10.07
2023-03-18T05:35:03.715Z,11.73
2023-03-18T05:37:32.773Z,11.43
2023-03-18T05:40:00.237Z,9.90
2023-03-18T05:42:28.072Z,11.53
2023-03-18T05:44:56.930Z,17.33
2023-03-18T05:47:24.518Z,21.33
2023-03-18T05:49:52.002Z,17.53
2023-03-18T05:52:19.448Z,20.33
2023-03-18T05:54:48.271Z,18.03
2023-03-18T05:57:15.748Z,16.50
2023-03-18T05:59:43.806Z,13.90
2023-03-18T06:02:11.695Z,16.10
2023-03-18T06:04:40.085Z,16.33
2023-03-18T06:07:07.578Z,16.77
2023-03-18T06:09:35.106Z,18.63
2023-03-18T06:12:05.408Z,21.30
2023-03-18T06:14:32.871Z,18.97
2023-03-18T06:17:00.400Z,19.53
2023-03-18T06:19:30.629Z,20.70
2023-03-18T06:21:58.743Z,19.47
2023-03-18T06:24:26.417Z,18.73
2023-03-18T06:26:54.370Z,15.77
2023-03-18T06:29:23.174Z,12.30
2023-03-18T06:31:50.770Z,11.13
2023-03-18T06:34:19.071Z,12.67
2023-03-18T06:36:46.562Z,10.07
2023-03-18T06:39:14.321Z,9.27
2023-03-18T06:41:41.800Z,13.83
2023-03-18T06:44:09.280Z,57.30
2023-03-18T06:46:38.173Z,76.77
2023-03-18T06:49:05.674Z,64.30
2023-03-18T06:51:33.559Z,34.50
2023-03-18T06:54:01.465Z,53.50
2023-03-18T06:56:28.919Z,56.67
2023-03-18T06:58:56.367Z,46.43
2023-03-18T07:01:23.826Z,25.43
2023-03-18T07:03:52.695Z,9.43
2023-03-18T07:06:20.172Z,7.60
2023-03-18T07:08:47.606Z,7.10
2023-03-18T07:11:15.120Z,8.95
2023-03-18T07:13:42.570Z,8.20
2023-03-18T07:16:10.643Z,9.35
2023-03-18T07:18:38.562Z,7.93
2023-03-18T07:21:07.763Z,11.02
2023-03-18T07:23:35.237Z,12.40
2023-03-18T07:26:02.897Z,10.20
2023-03-18T07:28:30.376Z,14.70
2023-03-18T07:30:57.916Z,33.83
2023-03-18T07:33:25.853Z,46.17
2023-03-18T07:35:53.350Z,38.63
2023-03-18T07:38:22.166Z,12.55
2023-03-18T07:40:49.613Z,7.93
2023-03-18T07:43:17.293Z,9.10
2023-03-18T07:45:45.253Z,9.93
2023-03-18T07:48:12.717Z,10.18
2023-03-18T07:50:40.838Z,35.08
2023-03-18T07:53:08.402Z,14.23
2023-03-18T07:55:37.198Z,15.30
2023-03-18T07:58:05.397Z,9.95
2023-03-18T08:00:33.400Z,15.50
2023-03-18T08:03:00.853Z,9.82
2023-03-18T08:05:28.542Z,9.73
2023-03-18T08:07:56.196Z,8.57
2023-03-18T08:10:25.210Z,10.20
2023-03-18T08:12:54.210Z,10.77
2023-03-18T08:15:22.302Z,6.95
2023-03-18T08:17:49.858Z,7.00
2023-03-18T08:20:17.540Z,7.18
2023-03-18T08:22:45.922Z,8.65
2023-03-18T08:25:13.490Z,7.05
2023-03-18T08:27:41.039Z,9.88
2023-03-18T08:30:11.225Z,7.43
2023-03-18T08:32:38.984Z,14.02
2023-03-18T08:35:07.479Z,7.75
2023-03-18T08:37:35.805Z,7.88
2023-03-18T08:40:03.686Z,6.32
2023-03-18T08:42:31.131Z,14.02
2023-03-18T08:44:58.627Z,8.73
2023-03-18T08:47:29.382Z,8.73
2023-03-18T08:49:57.656Z,12.25
2023-03-18T08:52:25.495Z,9.90
2023-03-18T08:54:53.006Z,9.95
2023-03-18T08:57:20.733Z,8.55
2023-03-18T08:59:48.194Z,9.13
2023-03-18T09:02:18.312Z,8.77
2023-03-18T09:04:48.133Z,10.38
2023-03-18T09:07:18.849Z,8.85
2023-03-18T09:09:46.571Z,7.93
2023-03-18T09:12:14.969Z,8.63
2023-03-18T09:14:43.538Z,9.65
2023-03-18T09:17:11.227Z,7.97
2023-03-18T09:19:38.732Z,7.63
2023-03-18T09:22:08.826Z,9.35
2023-03-18T09:24:36.276Z,8.38
2023-03-18T09:27:03.780Z,8.73
2023-03-18T09:29:31.894Z,8.23
2023-03-18T09:32:00.539Z,8.90
2023-03-18T09:34:28.123Z,9.02
2023-03-18T09:36:55.586Z,9.88
2023-03-18T09:39:24.410Z,10.68
2023-03-18T09:42:08.328Z,11.27
2023-03-18T09:44:37.377Z,9.57
2023-03-18T09:47:24.543Z,9.23
2023-03-18T09:50:22.336Z,10.52
2023-03-18T09:52:56.706Z,9.38
2023-03-18T09:55:31.048Z,9.38
2023-03-18T09:58:03.301Z,9.80
2023-03-18T10:00:34.433Z,8.68
2023-03-18T10:03:06.643Z,9.93
2023-03-18T10:05:38.010Z,10.23
2023-03-18T10:08:14.183Z,11.52
2023-03-18T10:10:46.815Z,8.73
2023-03-18T10:13:22.573Z,10.00
2023-03-18T10:15:53.933Z,9.38
2023-03-18T10:18:27.839Z,9.73
2023-03-18T10:21:12.230Z,9.43
2023-03-18T10:23:52.413Z,9.38
2023-03-18T10:26:27.946Z,8.98
2023-03-18T10:29:19.155Z,9.90
2023-03-18T10:32:00.638Z,9.80
2023-03-18T10:34:34.846Z,9.60
2023-03-18T10:37:07.718Z,9.55
2023-03-18T10:39:37.893Z,10.07
2023-03-18T10:42:20.544Z,9.20
2023-03-18T10:44:48.719Z,11.70
2023-03-18T10:47:21.037Z,9.35
2023-03-18T10:49:59.396Z,12.38
2023-03-18T10:52:34.640Z,8.90
2023-03-18T10:55:02.127Z,8.80
2023-03-18T10:57:32.513Z,8.98
2023-03-18T10:59:59.949Z,10.18
2023-03-18T11:02:34.155Z,10.00
2023-03-18T11:05:05.451Z,8.18
2023-03-18T11:07:33.236Z,11.82
2023-03-18T11:10:13.959Z,9.18
2023-03-18T11:12:43.452Z,9.90
2023-03-18T11:15:12.797Z,9.43
2023-03-18T11:17:40.769Z,11.65
2023-03-18T11:20:22.001Z,9.23
2023-03-18T11:22:52.126Z,8.82
2023-03-18T11:25:24.001Z,10.10
2023-03-18T11:27:58.072Z,9.43
2023-03-18T11:30:34.465Z,9.32
2023-03-18T11:33:06.999Z,9.52
2023-03-18T11:35:40.670Z,9.80
2023-03-18T11:38:15.883Z,8.55
2023-03-18T11:40:43.643Z,9.48
2023-03-18T11:43:19.657Z,10.18
2023-03-18T11:45:52.213Z,11.15
2023-03-18T11:48:28.942Z,9.00
2023-03-18T11:51:10.686Z,9.45
2023-03-18T11:53:51.181Z,8.63
2023-03-18T11:56:28.328Z,12.07
2023-03-18T11:59:22.702Z,8.07
2023-03-18T12:02:01.271Z,7.78
2023-03-18T12:04:46.224Z,7.88
2023-03-18T12:07:27.314Z,8.57
2023-03-18T12:10:04.279Z,7.50
2023-03-18T12:12:49.630Z,7.28
2023-03-18T12:15:31.528Z,7.88
2023-03-18T12:18:07.355Z,6.03
2023-03-18T12:20:49.232Z,7.30
2023-03-18T12:23:43.705Z,8.05
2023-03-18T12:26:16.634Z,8.85
2023-03-18T12:29:09.464Z,8.60
2023-03-18T12:31:54.539Z,8.63
2023-03-18T12:34:35.810Z,7.07
2023-03-18T12:37:18.777Z,8.02
2023-03-18T12:40:18.587Z,8.18
2023-03-18T12:43:03.250Z,8.73
2023-03-18T12:45:36.620Z,8.15
2023-03-18T12:48:11.049Z,9.75
2023-03-18T12:50:42.375Z,8.40
2023-03-18T12:53:16.737Z,10.75
2023-03-18T12:55:47.883Z,8.75
2023-03-18T12:58:19.045Z,9.65
2023-03-18T13:00:52.216Z,10.73
2023-03-18T13:03:32.186Z,7.85
2023-03-18T13:06:04.583Z,12.05
2023-03-18T13:08:50.631Z,8.65
2023-03-18T13:11:37.469Z,10.38
2023-03-18T13:14:12.155Z,10.80
2023-03-18T13:16:41.151Z,11.00
2023-03-18T13:19:11.782Z,9.70
2023-03-18T13:21:44.224Z,9.68
2023-03-18T13:24:32.779Z,9.60
2023-03-18T13:27:26.613Z,12.30
2023-03-18T13:30:02.756Z,9.73
2023-03-18T13:32:54.060Z,10.35
2023-03-18T13:35:44.835Z,12.35
2023-03-18T13:38:29.088Z,10.55
2023-03-18T13:41:14.845Z,10.25
2023-03-18T13:43:49.069Z,11.35
2023-03-18T13:46:20.948Z,10.15
2023-03-18T13:48:50.038Z,9.88
2023-03-18T13:51:49.265Z,13.18
2023-03-18T13:54:20.649Z,11.30
2023-03-18T13:56:52.716Z,11.13
2023-03-18T13:59:48.462Z,12.57
2023-03-18T14:02:43.606Z,12.45
2023-03-18T14:05:36.848Z,10.27
2023-03-18T14:08:07.086Z,12.70
2023-03-18T14:10:36.366Z,11.02
2023-03-18T14:13:27.415Z,11.57
2023-03-18T14:15:57.366Z,10.02
2023-03-18T14:18:28.111Z,9.85
2023-03-18T14:21:01.361Z,9.52
2023-03-18T14:23:42.878Z,10.43
2023-03-18T14:26:23.381Z,12.25
2023-03-18T14:28:56.006Z,11.77
2023-03-18T14:31:33.336Z,13.90
2023-03-18T14:34:20.731Z,11.20
2023-03-18T14:37:18.713Z,11.82
2023-03-18T14:39:49.154Z,12.40
2023-03-18T14:42:29.661Z,11.68
2023-03-18T14:45:04.550Z,12.18
2023-03-18T14:47:42.393Z,16.38
2023-03-18T14:50:17.015Z,12.88
2023-03-18T14:52:49.397Z,12.48
2023-03-18T14:55:20.592Z,9.77
2023-03-18T14:57:49.440Z,10.45
2023-03-18T15:00:18.323Z,11.65
2023-03-18T15:02:46.590Z,10.70
2023-03-18T15:05:18.763Z,9.43
2023-03-18T15:07:52.710Z,10.82
2023-03-18T15:10:21.930Z,10.40
2023-03-18T15:13:00.960Z,9.75
2023-03-18T15:15:28.438Z,9.40
2023-03-18T15:17:55.915Z,10.32
2023-03-18T15:20:24.120Z,10.15
2023-03-18T15:22:52.766Z,10.00
2023-03-18T15:25:22.957Z,11.32
2023-03-18T15:27:51.381Z,11.80
2023-03-18T15:30:29.075Z,10.95
2023-03-18T15:33:04.545Z,10.65
2023-03-18T15:35:32.736Z,11.63
2023-03-18T15:38:08.107Z,11.38
2023-03-18T15:40:37.938Z,11.43
2023-03-18T15:43:17.729Z,11.38
2023-03-18T15:45:48.691Z,11.70
2023-03-18T15:48:24.571Z,17.30
2023-03-18T15:50:56.870Z,9.93
2023-03-18T15:53:26.820Z,11.45
2023-03-18T15:55:56.354Z,10.02
2023-03-18T15:58:27.292Z,10.90
2023-03-18T16:00:57.742Z,11.45
2023-03-18T16:03:27.149Z,11.57
2023-03-18T16:05:55.135Z,11.48
2023-03-18T16:08:23.643Z,11.80
2023-03-18T16:10:54.574Z,10.52
2023-03-18T16:13:24.534Z,28.38
2023-03-18T16:15:53.136Z,11.48
2023-03-18T16:18:22.071Z,15.20
2023-03-18T16:20:50.315Z,16.70
2023-03-18T16:23:19.086Z,29.35
2023-03-18T16:25:48.780Z,35.35
2023-03-18T16:28:20.616Z,31.80
2023-03-18T16:30:49.500Z,29.58
2023-03-18T16:33:18.932Z,29.40
2023-03-18T16:35:58.438Z,29.52
2023-03-18T16:38:28.372Z,27.80
2023-03-18T16:40:57.478Z,35.78
2023-03-18T16:43:27.247Z,23.45
2023-03-18T16:45:58.426Z,20.50
2023-03-18T16:48:27.692Z,15.13
2023-03-18T16:50:57.887Z,33.83
2023-03-18T16:53:27.606Z,34.28
2023-03-18T16:55:58.262Z,32.70
2023-03-18T16:58:29.729Z,23.98
2023-03-18T17:00:57.888Z,22.92
2023-03-18T17:03:25.402Z,24.40
2023-03-18T17:05:53.774Z,14.10
2023-03-18T17:08:23.023Z,10.27
2023-03-18T17:10:52.565Z,14.25
2023-03-18T17:13:23.285Z,30.00
2023-03-18T17:15:52.068Z,39.50
2023-03-18T17:18:21.717Z,48.22
2023-03-18T17:20:49.935Z,43.63
2023-03-18T17:23:19.524Z,31.52
2023-03-18T17:25:53.709Z,33.85
2023-03-18T17:28:34.355Z,16.63
2023-03-18T17:31:02.150Z,21.15
2023-03-18T17:33:31.906Z,11.85
2023-03-18T17:36:01.551Z,29.13
2023-03-18T17:38:30.660Z,21.92
2023-03-18T17:41:00.272Z,14.48
2023-03-18T17:43:30.212Z,9.25
2023-03-18T17:45:58.819Z,8.18
2023-03-18T17:48:28.542Z,20.52
2023-03-18T17:50:58.266Z,18.85
2023-03-18T17:53:28.678Z,28.05
2023-03-18T17:55:57.097Z,17.02
2023-03-18T17:58:27.586Z,13.48
2023-03-18T18:00:57.857Z,46.90
2023-03-18T18:03:27.724Z,30.90
2023-03-18T18:05:56.283Z,20.55
2023-03-18T18:08:25.979Z,113.28
2023-03-18T18:10:55.630Z,56.47
2023-03-18T18:13:23.894Z,33.92
2023-03-18T18:15:52.771Z,29.98
2023-03-18T18:18:25.366Z,24.38
2023-03-18T18:20:55.687Z,12.23
2023-03-18T18:23:35.405Z,7.13
2023-03-18T18:26:04.971Z,10.65
2023-03-18T18:28:34.619Z,39.45
2023-03-18T18:31:05.376Z,45.60
2023-03-18T18:33:34.529Z,54.38
2023-03-18T18:36:02.775Z,82.88
2023-03-18T18:38:30.765Z,83.88
2023-03-18T18:41:00.029Z,66.47
2023-03-18T18:43:27.861Z,80.95
2023-03-18T18:45:57.494Z,74.85
2023-03-18T18:48:30.333Z,72.93
2023-03-18T18:50:58.517Z,48.75
2023-03-18T18:53:27.849Z,37.33
2023-03-18T18:55:57.616Z,41.65
2023-03-18T18:58:29.464Z,45.75
2023-03-18T19:00:57.693Z,42.67
2023-03-18T19:03:31.003Z,41.33
2023-03-18T19:05:59.677Z,64.13
2023-03-18T19:08:31.390Z,38.28
2023-03-18T19:11:00.910Z,32.53
2023-03-18T19:13:30.624Z,14.02
2023-03-18T19:16:00.745Z,18.98
2023-03-18T19:18:35.752Z,19.73
2023-03-18T19:21:03.201Z,15.10
2023-03-18T19:23:33.162Z,17.17
2023-03-18T19:26:01.569Z,19.70
2023-03-18T19:28:47.858Z,20.02
2023-03-18T19:31:20.596Z,12.03
2023-03-18T19:33:51.590Z,15.70
2023-03-18T19:36:25.158Z,10.83
2023-03-18T19:38:53.520Z,18.37
2023-03-18T19:41:21.572Z,14.03
2023-03-18T19:43:49.546Z,10.63
2023-03-18T19:46:18.817Z,13.13
2023-03-18T19:48:47.003Z,13.50
2023-03-18T19:51:16.587Z,13.20
2023-03-18T19:53:45.198Z,13.03
2023-03-18T19:56:25.126Z,14.93
2023-03-18T19:58:54.008Z,17.73
2023-03-18T20:01:22.007Z,12.80
2023-03-18T20:03:50.121Z,13.00
2023-03-18T20:06:18.912Z,14.80
2023-03-18T20:08:46.571Z,13.70
2023-03-18T20:11:15.470Z,14.37
2023-03-18T20:13:44.105Z,14.83
2023-03-18T20:16:14.608Z,12.03
2023-03-18T20:18:42.751Z,10.60
2023-03-18T20:21:18.573Z,13.87
2023-03-18T20:23:47.504Z,12.00
2023-03-18T20:26:15.665Z,9.90
2023-03-18T20:28:45.454Z,13.53
2023-03-18T20:31:14.352Z,13.23
2023-03-18T20:33:41.881Z,15.20
2023-03-18T20:36:16.217Z,22.10
2023-03-18T20:38:45.983Z,14.20
2023-03-18T20:41:17.869Z,13.40
2023-03-18T20:43:45.577Z,12.30
2023-03-18T20:46:15.570Z,14.57
2023-03-18T20:48:44.190Z,19.00
2023-03-18T20:51:21.101Z,15.23
2023-03-18T20:53:49.298Z,12.03
2023-03-18T20:56:19.352Z,10.30
2023-03-18T20:58:46.851Z,10.87
2023-03-18T21:01:14.980Z,13.57
2023-03-18T21:03:42.894Z,13.87
2023-03-18T21:06:13.916Z,10.93
2023-03-18T21:08:42.007Z,10.63
2023-03-18T21:11:20.963Z,10.87
2023-03-18T21:13:48.920Z,13.53
2023-03-18T21:16:18.261Z,12.47
2023-03-18T21:18:46.392Z,12.20
2023-03-18T21:21:20.560Z,10.93
2023-03-18T21:23:48.205Z,12.40
2023-03-18T21:26:15.933Z,12.87
2023-03-18T21:28:44.754Z,11.47
2023-03-18T21:31:23.859Z,12.77
2023-03-18T21:33:51.446Z,10.67
2023-03-18T21:36:18.969Z,10.40
2023-03-18T21:38:46.929Z,10.43
2023-03-18T21:41:22.074Z,9.87
2023-03-18T21:43:51.499Z,22.87
2023-03-18T21:46:21.161Z,26.97
2023-03-18T21:48:48.976Z,14.53
2023-03-18T21:51:37.471Z,17.70
2023-03-18T21:54:06.210Z,14.73
2023-03-18T21:56:33.859Z,11.67
2023-03-18T21:59:02.654Z,10.83
2023-03-18T22:01:32.218Z,13.57
2023-03-18T22:03:59.990Z,13.90
2023-03-18T22:06:27.492Z,9.73
2023-03-18T22:08:56.723Z,9.13
2023-03-18T22:11:24.184Z,9.60
2023-03-18T22:13:51.704Z,12.70
2023-03-18T22:16:20.594Z,11.03
2023-03-18T22:18:48.198Z,10.07
2023-03-18T22:21:19.914Z,8.30
2023-03-18T22:23:47.430Z,12.63
2023-03-18T22:26:16.683Z,11.53
2023-03-18T22:28:44.592Z,9.57
2023-03-18T22:31:20.767Z,10.87
2023-03-18T22:33:48.413Z,11.10
2023-03-18T22:36:17.272Z,12.83
2023-03-18T22:38:45.807Z,11.37
2023-03-18T22:41:20.988Z,17.07
2023-03-18T22:43:48.825Z,12.73
2023-03-18T22:46:16.584Z,13.73
2023-03-18T22:48:45.523Z,14.33
2023-03-18T22:51:22.887Z,10.57
2023-03-18T22:53:52.636Z,8.77
2023-03-18T22:56:21.152Z,9.73
2023-03-18T22:58:48.640Z,37.83
2023-03-18T23:01:18.560Z,28.03
2023-03-18T23:03:47.814Z,19.53
2023-03-18T23:06:17.537Z,10.93
2023-03-18T23:08:46.472Z,14.63
2023-03-18T23:11:14.982Z,20.57
2023-03-18T23:13:43.685Z,12.70
2023-03-18T23:16:15.261Z,11.67
2023-03-18T23:18:42.952Z,12.17
2023-03-18T23:21:16.667Z,10.07
2023-03-18T23:23:44.221Z,9.63
2023-03-18T23:26:11.796Z,12.33
2023-03-18T23:28:44.549Z,11.67
2023-03-18T23:31:13.339Z,13.70
2023-03-18T23:33:40.970Z,12.20
2023-03-18T23:36:09.258Z,30.20
2023-03-18T23:38:38.671Z,26.50
2023-03-18T23:41:07.048Z,16.10
2023-03-18T23:43:34.622Z,16.90
2023-03-18T23:46:03.611Z,9.73
2023-03-18T23:48:31.105Z,11.10
2023-03-18T23:50:58.620Z,12.10
2023-03-18T23:53:26.119Z,12.60
2023-03-18T23:55:54.914Z,13.37
2023-03-18T23:58:22.431Z,12.47
